createdAt,value
2022-08-22T00:01:56.332Z,14.97
2022-08-22T00:02:49.418Z,17.63
2022-08-22T00:02:52.599Z,23.26
2022-08-22T00:02:53.142Z,21.11
2022-08-22T00:03:00.233Z,20.51
2022-08-22T00:03:16.333Z,16.02
2022-08-22T00:04:36.417Z,14.72
2022-08-22T00:07:08.389Z,14.70
2022-08-22T00:10:01.327Z,14.72
2022-08-22T00:12:34.840Z,14.72
2022-08-22T00:15:03.596Z,14.68
2022-08-22T00:17:25.042Z,14.50
2022-08-22T00:20:07.688Z,14.49
2022-08-22T00:22:34.945Z,14.47
2022-08-22T00:25:25.431Z,14.46
2022-08-22T00:27:54.222Z,14.53
2022-08-22T00:30:18.501Z,14.53
2022-08-22T00:32:52.728Z,14.44
2022-08-22T00:35:29.440Z,14.43
2022-08-22T00:38:02.600Z,14.45
2022-08-22T00:40:53.612Z,14.48
2022-08-22T00:43:43.451Z,14.45
2022-08-22T00:46:22.187Z,14.30
2022-08-22T00:48:55.513Z,14.18
2022-08-22T00:51:42.092Z,14.14
2022-08-22T00:54:31.758Z,14.03
2022-08-22T00:57:10.309Z,13.98
2022-08-22T00:59:43.993Z,14.00
2022-08-22T01:02:29.818Z,14.17
2022-08-22T01:05:04.434Z,14.05
2022-08-22T01:07:48.394Z,13.91
2022-08-22T01:10:42.734Z,13.90
2022-08-22T01:13:38.367Z,13.97
2022-08-22T01:16:20.860Z,13.85
2022-08-22T01:19:12.035Z,13.92
2022-08-22T01:21:51.282Z,13.98
2022-08-22T01:25:02.883Z,13.73
2022-08-22T01:28:02.448Z,13.75
2022-08-22T01:30:45.227Z,13.75
2022-08-22T01:33:41.871Z,13.65
2022-08-22T01:36:29.957Z,13.64
2022-08-22T01:38:57.482Z,13.68
2022-08-22T01:41:49.174Z,13.62
2022-08-22T01:44:19.518Z,13.58
2022-08-22T01:46:47.667Z,13.58
2022-08-22T01:49:27.313Z,13.63
2022-08-22T01:51:59.873Z,13.63
2022-08-22T01:54:27.187Z,13.58
2022-08-22T01:56:49.328Z,13.71
2022-08-22T01:59:20.608Z,13.66
2022-08-22T02:01:49.746Z,13.51
2022-08-22T02:04:20.066Z,13.61
2022-08-22T02:06:59.693Z,13.48
2022-08-22T02:09:34.516Z,13.40
2022-08-22T02:12:02.422Z,13.39
2022-08-22T02:14:32.835Z,13.41
2022-08-22T02:17:13.844Z,13.45
2022-08-22T02:19:40.584Z,13.41
2022-08-22T02:22:18.188Z,13.44
2022-08-22T02:25:09.117Z,13.47
2022-08-22T02:27:43.925Z,13.47
2022-08-22T02:30:13.075Z,13.36
2022-08-22T02:32:51.558Z,13.24
2022-08-22T02:35:12.965Z,13.20
2022-08-22T02:37:47.245Z,13.24
2022-08-22T02:40:27.440Z,13.26
2022-08-22T02:43:01.716Z,13.27
2022-08-22T02:46:01.287Z,13.26
2022-08-22T02:48:48.088Z,13.12
2022-08-22T02:51:20.681Z,13.13
2022-08-22T02:53:56.286Z,13.15
2022-08-22T02:56:27.021Z,13.09
2022-08-22T02:59:13.393Z,13.10
2022-08-22T03:01:45.430Z,13.01
2022-08-22T03:04:31.495Z,12.93
2022-08-22T03:07:11.722Z,12.94
2022-08-22T03:10:00.766Z,12.99
2022-08-22T03:12:38.565Z,13.03
2022-08-22T03:15:12.816Z,12.91
2022-08-22T03:17:54.045Z,12.94
2022-08-22T03:20:35.334Z,12.91
2022-08-22T03:23:04.614Z,12.79
2022-08-22T03:25:33.717Z,12.82
2022-08-22T03:28:03.290Z,12.88
2022-08-22T03:30:40.609Z,12.85
2022-08-22T03:33:14.198Z,12.85
2022-08-22T03:35:42.205Z,12.87
2022-08-22T03:38:33.020Z,12.80
2022-08-22T03:41:33.777Z,12.77
2022-08-22T03:44:19.222Z,12.80
2022-08-22T03:47:01.869Z,12.77
2022-08-22T03:49:52.987Z,12.75
2022-08-22T03:53:03.987Z,12.74
2022-08-22T03:55:40.623Z,12.70
2022-08-22T03:58:05.575Z,12.63
2022-08-22T04:01:19.343Z,12.61
2022-08-22T04:04:11.349Z,12.64
2022-08-22T04:07:19.679Z,12.62
2022-08-22T04:09:57.672Z,12.48
2022-08-22T04:12:34.710Z,12.40
2022-08-22T04:15:08.865Z,12.43
2022-08-22T04:17:39.301Z,12.52
2022-08-22T04:20:26.347Z,12.63
2022-08-22T04:23:27.794Z,12.56
2022-08-22T04:26:28.098Z,12.38
2022-08-22T04:28:57.117Z,12.25
2022-08-22T04:31:27.851Z,12.28
2022-08-22T04:33:55.501Z,12.29
2022-08-22T04:36:27.595Z,12.39
2022-08-22T04:39:00.383Z,12.40
2022-08-22T04:41:32.695Z,12.42
2022-08-22T04:44:10.869Z,12.52
2022-08-22T04:46:49.594Z,12.60
2022-08-22T04:49:14.240Z,12.68
2022-08-22T04:51:40.462Z,12.68
2022-08-22T04:54:22.132Z,12.64
2022-08-22T04:57:11.000Z,12.59
2022-08-22T04:59:34.334Z,12.55
2022-08-22T05:02:06.667Z,12.52
2022-08-22T05:04:50.325Z,12.59
2022-08-22T05:07:23.144Z,12.56
2022-08-22T05:10:11.607Z,12.61
2022-08-22T05:12:37.579Z,12.60
2022-08-22T05:15:14.110Z,12.66
2022-08-22T05:17:42.512Z,12.73
2022-08-22T05:20:08.775Z,12.84
2022-08-22T05:22:40.151Z,12.95
2022-08-22T05:25:10.976Z,13.02
2022-08-22T05:27:37.060Z,12.98
2022-08-22T05:30:13.472Z,12.97
2022-08-22T05:32:50.318Z,13.02
2022-08-22T05:35:12.144Z,13.19
2022-08-22T05:37:44.675Z,13.18
2022-08-22T05:40:07.404Z,13.21
2022-08-22T05:42:34.766Z,13.28
2022-08-22T05:44:56.540Z,13.41
2022-08-22T05:47:23.646Z,13.49
2022-08-22T05:50:06.453Z,13.57
2022-08-22T05:52:50.562Z,13.67
2022-08-22T05:55:29.854Z,13.78
2022-08-22T05:58:27.730Z,13.85
2022-08-22T06:01:11.384Z,13.94
2022-08-22T06:03:58.710Z,14.05
2022-08-22T06:06:21.984Z,14.13
2022-08-22T06:08:53.741Z,14.24
2022-08-22T06:11:22.948Z,14.36
2022-08-22T06:13:52.988Z,14.50
2022-08-22T06:16:22.115Z,14.61
2022-08-22T06:18:44.854Z,14.69
2022-08-22T06:21:21.028Z,14.77
2022-08-22T06:23:49.236Z,14.89
2022-08-22T06:26:20.634Z,15.03
2022-08-22T06:28:55.173Z,15.11
2022-08-22T06:31:22.153Z,15.20
2022-08-22T06:33:46.208Z,15.34
2022-08-22T06:36:33.867Z,15.41
2022-08-22T06:39:16.573Z,15.53
2022-08-22T06:41:48.013Z,15.63
2022-08-22T06:44:13.126Z,15.74
2022-08-22T06:46:38.069Z,15.85
2022-08-22T06:49:01.133Z,15.94
2022-08-22T06:51:26.232Z,16.03
2022-08-22T06:53:51.684Z,16.15
2022-08-22T06:56:23.255Z,16.30
2022-08-22T06:58:48.314Z,16.43
2022-08-22T07:01:14.789Z,16.54
2022-08-22T07:03:40.660Z,16.69
2022-08-22T07:06:03.352Z,16.81
2022-08-22T07:08:26.268Z,16.94
2022-08-22T07:10:56.482Z,17.02
2022-08-22T07:13:19.608Z,17.12
2022-08-22T07:15:42.968Z,17.30
2022-08-22T07:18:08.945Z,17.43
2022-08-22T07:20:35.454Z,17.57
2022-08-22T07:22:59.076Z,17.68
2022-08-22T07:25:21.399Z,17.81
2022-08-22T07:27:55.064Z,17.97
2022-08-22T07:30:27.378Z,18.14
2022-08-22T07:33:17.686Z,18.32
2022-08-22T07:35:53.349Z,18.46
2022-08-22T07:38:20.954Z,18.59
2022-08-22T07:41:03.073Z,18.78
2022-08-22T07:43:49.029Z,19.16
2022-08-22T07:46:35.656Z,19.33
2022-08-22T07:49:22.325Z,19.50
2022-08-22T07:51:52.055Z,19.67
2022-08-22T07:54:21.467Z,19.87
2022-08-22T07:56:57.616Z,20.05
2022-08-22T07:59:20.491Z,20.20
2022-08-22T08:01:50.121Z,20.35
2022-08-22T08:04:17.665Z,20.57
2022-08-22T08:06:40.138Z,20.78
2022-08-22T08:09:02.437Z,20.95
2022-08-22T08:11:28.103Z,21.07
2022-08-22T08:14:03.828Z,21.32
2022-08-22T08:16:30.945Z,21.64
2022-08-22T08:18:56.823Z,21.80
2022-08-22T08:21:30.531Z,22.07
2022-08-22T08:23:54.138Z,22.22
2022-08-22T08:26:20.241Z,22.49
2022-08-22T08:28:46.366Z,22.65
2022-08-22T08:31:31.941Z,22.74
2022-08-22T08:34:06.404Z,23.22
2022-08-22T08:36:39.961Z,23.50
2022-08-22T08:39:34.942Z,23.40
2022-08-22T08:42:29.560Z,23.71
2022-08-22T08:45:24.752Z,23.77
2022-08-22T08:48:15.127Z,23.89
2022-08-22T08:51:09.324Z,24.26
2022-08-22T08:54:09.300Z,24.28
2022-08-22T08:56:56.971Z,24.62
2022-08-22T08:59:44.101Z,24.56
2022-08-22T09:02:23.503Z,24.62
2022-08-22T09:05:26.415Z,24.78
2022-08-22T09:07:58.526Z,24.95
2022-08-22T09:13:18.277Z,25.48
2022-08-22T09:15:56.315Z,25.65
2022-08-22T09:18:57.135Z,26.08
2022-08-22T09:21:43.657Z,26.14
2022-08-22T09:24:42.538Z,26.18
2022-08-22T09:27:12.357Z,26.43
2022-08-22T09:29:59.789Z,26.55
2022-08-22T09:32:46.632Z,26.93
2022-08-22T09:35:26.824Z,27.30
2022-08-22T09:37:57.972Z,27.55
2022-08-22T09:40:29.118Z,27.78
2022-08-22T09:42:53.981Z,27.84
2022-08-22T09:45:34.774Z,28.20
2022-08-22T09:48:26.612Z,28.33
2022-08-22T09:51:20.000Z,28.29
2022-08-22T09:53:57.306Z,28.35
2022-08-22T09:56:51.569Z,28.19
2022-08-22T09:59:27.116Z,27.98
2022-08-22T10:02:14.275Z,27.67
2022-08-22T10:04:51.825Z,27.61
2022-08-22T10:07:32.415Z,27.46
2022-08-22T10:10:06.030Z,27.36
2022-08-22T10:12:36.190Z,27.36
2022-08-22T10:15:15.197Z,27.34
2022-08-22T10:17:43.820Z,27.26
2022-08-22T10:20:14.730Z,27.28
2022-08-22T10:22:47.378Z,27.27
2022-08-22T10:25:36.619Z,27.27
2022-08-22T10:28:42.181Z,27.18
2022-08-22T10:31:27.671Z,27.13
2022-08-22T10:33:55.767Z,26.96
2022-08-22T10:36:29.729Z,26.88
2022-08-22T10:38:54.638Z,27.00
2022-08-22T10:41:37.497Z,27.14
2022-08-22T10:44:19.547Z,27.22
2022-08-22T10:46:50.260Z,27.17
2022-08-22T10:49:35.993Z,27.15
2022-08-22T10:52:16.751Z,27.36
2022-08-22T10:54:56.440Z,27.56
2022-08-22T10:57:27.036Z,27.84
2022-08-22T11:00:29.994Z,27.86
2022-08-22T11:03:15.837Z,27.99
2022-08-22T11:05:50.746Z,27.99
2022-08-22T11:08:57.807Z,28.31
2022-08-22T11:11:40.666Z,28.52
2022-08-22T11:14:05.230Z,28.71
2022-08-22T11:16:43.495Z,29.08
2022-08-22T11:19:23.056Z,29.26
2022-08-22T11:22:04.981Z,29.41
2022-08-22T11:25:02.359Z,29.53
2022-08-22T11:27:59.494Z,29.32
2022-08-22T11:30:31.587Z,29.37
2022-08-22T11:33:32.513Z,29.59
2022-08-22T11:36:26.212Z,29.88
2022-08-22T11:39:02.725Z,30.17
2022-08-22T11:41:32.620Z,30.24
2022-08-22T11:44:03.495Z,30.32
2022-08-22T11:46:30.719Z,30.08
2022-08-22T11:48:55.100Z,30.11
2022-08-22T11:51:39.637Z,30.15
2022-08-22T11:54:14.494Z,30.19
2022-08-22T11:56:45.209Z,30.37
2022-08-22T11:59:30.673Z,30.54
2022-08-22T12:02:02.224Z,30.49
2022-08-22T12:04:37.381Z,30.74
2022-08-22T12:07:18.459Z,30.81
2022-08-22T12:09:52.057Z,30.77
2022-08-22T12:12:20.121Z,30.92
2022-08-22T12:14:49.264Z,31.01
2022-08-22T12:17:55.669Z,30.93
2022-08-22T12:20:45.435Z,30.90
2022-08-22T12:23:43.185Z,30.90
2022-08-22T12:26:22.058Z,30.77
2022-08-22T12:28:52.909Z,31.04
2022-08-22T12:31:29.483Z,30.94
2022-08-22T12:33:56.866Z,31.31
2022-08-22T12:36:45.665Z,31.71
2022-08-22T12:39:49.313Z,31.64
2022-08-22T12:42:40.021Z,32.00
2022-08-22T12:45:16.469Z,32.56
2022-08-22T12:47:56.411Z,33.05
2022-08-22T12:50:36.685Z,33.55
2022-08-22T12:53:25.784Z,34.61
2022-08-22T12:56:01.840Z,35.79
2022-08-22T12:58:51.464Z,37.16
2022-08-22T13:01:14.445Z,38.24
2022-08-22T13:03:46.384Z,38.87
2022-08-22T13:06:36.034Z,39.49
2022-08-22T13:08:57.909Z,40.05
2022-08-22T13:11:23.346Z,40.69
2022-08-22T13:13:57.246Z,41.23
2022-08-22T13:16:20.833Z,41.32
2022-08-22T13:18:54.050Z,41.85
2022-08-22T13:21:18.508Z,41.38
2022-08-22T13:23:46.965Z,40.88
2022-08-22T13:26:31.764Z,39.92
2022-08-22T13:29:42.541Z,39.75
2022-08-22T13:32:01.723Z,40.15
2022-08-22T13:34:43.926Z,40.68
2022-08-22T13:37:11.576Z,40.79
2022-08-22T13:39:37.088Z,40.83
2022-08-22T13:42:01.089Z,40.87
2022-08-22T13:44:28.427Z,41.34
2022-08-22T13:47:13.105Z,41.46
2022-08-22T13:49:35.813Z,41.77
2022-08-22T13:52:38.003Z,41.89
2022-08-22T13:55:27.655Z,42.05
2022-08-22T13:57:57.552Z,42.29
2022-08-22T14:00:29.440Z,42.53
2022-08-22T14:03:05.727Z,42.09
2022-08-22T14:05:33.194Z,41.67
2022-08-22T14:08:12.660Z,41.61
2022-08-22T14:10:38.896Z,40.58
2022-08-22T14:13:00.757Z,40.13
2022-08-22T14:15:26.373Z,39.71
2022-08-22T14:18:03.413Z,38.51
2022-08-22T14:20:33.475Z,38.16
2022-08-22T14:23:03.560Z,38.22
2022-08-22T14:25:28.195Z,38.64
2022-08-22T14:27:49.605Z,39.06
2022-08-22T14:30:24.589Z,39.21
2022-08-22T14:32:54.770Z,39.68
2022-08-22T14:35:37.587Z,40.13
2022-08-22T14:38:17.443Z,40.90
2022-08-22T14:40:40.930Z,41.34
2022-08-22T14:43:15.122Z,42.04
2022-08-22T14:45:53.891Z,42.40
2022-08-22T14:48:30.695Z,42.57
2022-08-22T14:51:01.418Z,41.91
2022-08-22T14:53:30.130Z,41.00
2022-08-22T14:56:03.541Z,40.31
2022-08-22T14:58:28.815Z,39.19
2022-08-22T15:00:52.103Z,38.31
2022-08-22T15:03:24.934Z,37.70
2022-08-22T15:05:51.483Z,36.73
2022-08-22T15:08:21.471Z,36.27
2022-08-22T15:10:46.553Z,35.91
2022-08-22T15:13:10.092Z,35.33
2022-08-22T15:15:53.267Z,34.84
2022-08-22T15:18:34.923Z,34.43
2022-08-22T15:21:18.331Z,34.09
2022-08-22T15:23:46.643Z,34.38
2022-08-22T15:26:17.153Z,33.82
2022-08-22T15:28:44.929Z,34.09
2022-08-22T15:31:17.447Z,34.91
2022-08-22T15:33:45.941Z,35.45
2022-08-22T15:36:19.975Z,36.06
2022-08-22T15:38:48.180Z,36.46
2022-08-22T15:41:22.491Z,36.84
2022-08-22T15:43:52.913Z,37.58
2022-08-22T15:46:23.711Z,37.84
2022-08-22T15:48:57.433Z,38.11
2022-08-22T15:51:46.263Z,38.45
2022-08-22T15:54:24.203Z,38.84
2022-08-22T15:56:52.990Z,39.00
2022-08-22T15:59:23.840Z,39.08
2022-08-22T16:01:52.545Z,38.71
2022-08-22T16:04:15.300Z,38.64
2022-08-22T16:06:54.774Z,38.76
2022-08-22T16:09:43.493Z,39.01
2022-08-22T16:12:12.532Z,39.23
2022-08-22T16:14:33.926Z,39.20
2022-08-22T16:17:24.668Z,39.38
2022-08-22T16:19:46.135Z,39.41
2022-08-22T16:22:09.647Z,39.17
2022-08-22T16:24:34.022Z,39.57
2022-08-22T16:26:58.761Z,39.51
2022-08-22T16:29:41.291Z,39.07
2022-08-22T16:32:08.526Z,39.33
2022-08-22T16:34:36.514Z,38.83
2022-08-22T16:37:18.055Z,38.44
2022-08-22T16:39:58.554Z,38.16
2022-08-22T16:42:26.990Z,37.99
2022-08-22T16:44:51.724Z,38.09
2022-08-22T16:47:15.110Z,38.11
2022-08-22T16:49:56.219Z,37.80
2022-08-22T16:52:20.957Z,37.73
2022-08-22T16:54:46.288Z,37.71
2022-08-22T16:57:29.167Z,37.44
2022-08-22T17:00:09.612Z,37.15
2022-08-22T17:02:46.060Z,37.04
2022-08-22T17:05:29.443Z,36.86
2022-08-22T17:07:51.766Z,36.75
2022-08-22T17:10:41.096Z,36.42
2022-08-22T17:13:26.510Z,35.77
2022-08-22T17:16:02.911Z,35.28
2022-08-22T17:18:54.187Z,35.15
2022-08-22T17:21:39.113Z,34.89
2022-08-22T17:24:09.874Z,34.74
2022-08-22T17:27:14.130Z,34.77
2022-08-22T17:30:03.784Z,34.49
2022-08-22T17:32:40.468Z,34.19
2022-08-22T17:35:13.412Z,34.01
2022-08-22T17:38:01.240Z,33.90
2022-08-22T17:40:41.645Z,33.70
2022-08-22T17:43:26.969Z,33.63
2022-08-22T17:46:07.187Z,33.41
2022-08-22T17:48:46.287Z,33.11
2022-08-22T17:51:15.573Z,32.94
2022-08-22T17:54:01.285Z,32.68
2022-08-22T17:56:33.818Z,32.49
2022-08-22T17:59:06.753Z,32.23
2022-08-22T18:01:48.103Z,32.01
2022-08-22T18:04:19.385Z,31.65
2022-08-22T18:06:56.276Z,31.29
2022-08-22T18:09:25.785Z,31.06
2022-08-22T18:11:54.442Z,30.78
2022-08-22T18:14:26.037Z,30.53
2022-08-22T18:16:50.681Z,30.38
2022-08-22T18:19:24.273Z,30.13
2022-08-22T18:21:54.859Z,29.96
2022-08-22T18:24:43.135Z,29.62
2022-08-22T18:27:43.892Z,29.31
2022-08-22T18:30:11.146Z,29.00
2022-08-22T18:33:10.227Z,28.72
2022-08-22T18:35:42.824Z,28.43
2022-08-22T18:38:26.538Z,28.24
2022-08-22T18:40:57.260Z,28.01
2022-08-22T18:43:25.962Z,27.85
2022-08-22T18:45:47.358Z,27.63
2022-08-22T18:48:09.124Z,27.49
2022-08-22T18:50:34.080Z,27.28
2022-08-22T18:52:57.401Z,27.14
2022-08-22T18:55:28.183Z,26.94
2022-08-22T18:58:14.792Z,26.82
2022-08-22T19:00:52.297Z,26.62
2022-08-22T19:03:50.164Z,26.48
2022-08-22T19:06:47.740Z,26.32
2022-08-22T19:09:28.496Z,26.21
2022-08-22T19:12:09.520Z,26.16
2022-08-22T19:14:56.123Z,26.00
2022-08-22T19:17:20.346Z,25.87
2022-08-22T19:20:28.193Z,25.75
2022-08-22T19:22:51.113Z,25.63
2022-08-22T19:25:12.678Z,25.50
2022-08-22T19:27:44.646Z,25.36
2022-08-22T19:30:48.344Z,25.22
2022-08-22T19:33:34.567Z,25.07
2022-08-22T19:35:56.426Z,25.02
2022-08-22T19:38:57.372Z,24.94
2022-08-22T19:41:39.488Z,24.86
2022-08-22T19:44:00.980Z,24.82
2022-08-22T19:46:36.414Z,24.78
2022-08-22T19:48:58.188Z,24.68
2022-08-22T19:51:19.574Z,24.62
2022-08-22T19:53:56.930Z,24.56
2022-08-22T19:56:27.703Z,24.47
2022-08-22T19:59:28.067Z,24.37
2022-08-22T20:02:01.933Z,24.30
2022-08-22T20:05:02.702Z,24.22
2022-08-22T20:08:02.746Z,24.10
2022-08-22T20:10:36.371Z,24.00
2022-08-22T20:13:10.324Z,23.94
2022-08-22T20:16:02.764Z,23.83
2022-08-22T20:19:03.539Z,23.72
2022-08-22T20:21:58.024Z,23.68
2022-08-22T20:24:29.800Z,23.68
2022-08-22T20:27:13.325Z,23.56
2022-08-22T20:29:39.764Z,23.51
2022-08-22T20:32:02.785Z,23.44
2022-08-22T20:34:28.481Z,23.38
2022-08-22T20:37:04.286Z,23.31
2022-08-22T20:39:46.894Z,23.22
2022-08-22T20:42:14.442Z,23.19
2022-08-22T20:44:45.241Z,23.14
2022-08-22T20:47:22.312Z,23.14
2022-08-22T20:49:48.529Z,23.12
2022-08-22T20:52:20.713Z,23.08
2022-08-22T20:54:42.319Z,23.06
2022-08-22T20:57:16.052Z,23.01
2022-08-22T20:59:49.317Z,22.92
2022-08-22T21:02:14.998Z,22.89
2022-08-22T21:04:50.744Z,22.70
2022-08-22T21:07:25.824Z,22.68
2022-08-22T21:10:22.614Z,22.58
2022-08-22T21:13:01.140Z,22.47
2022-08-22T21:15:35.167Z,22.41
2022-08-22T21:17:56.655Z,22.41
2022-08-22T21:20:22.772Z,22.38
2022-08-22T21:22:44.296Z,22.47
2022-08-22T21:25:05.970Z,22.39
2022-08-22T21:27:33.678Z,22.34
2022-08-22T21:29:56.054Z,22.38
2022-08-22T21:32:32.833Z,22.30
2022-08-22T21:34:54.461Z,22.31
2022-08-22T21:37:47.329Z,22.33
2022-08-22T21:40:18.054Z,22.27
2022-08-22T21:42:42.966Z,22.24
2022-08-22T21:45:42.034Z,22.19
2022-08-22T21:48:22.716Z,22.17
2022-08-22T21:50:44.164Z,22.15
2022-08-22T21:53:12.104Z,22.11
2022-08-22T21:55:39.764Z,22.09
2022-08-22T21:58:34.950Z,22.09
2022-08-22T22:01:21.175Z,22.05
2022-08-22T22:03:46.388Z,22.06
2022-08-22T22:06:09.203Z,22.00
2022-08-22T22:08:31.409Z,21.99
2022-08-22T22:10:56.358Z,22.07
2022-08-22T22:13:19.957Z,21.99
2022-08-22T22:15:47.314Z,21.98
2022-08-22T22:18:09.872Z,22.02
2022-08-22T22:20:31.799Z,21.86
2022-08-22T22:22:54.184Z,21.78
2022-08-22T22:25:38.830Z,21.64
2022-08-22T22:28:00.013Z,21.54
2022-08-22T22:30:21.629Z,21.53
2022-08-22T22:32:43.351Z,21.45
2022-08-22T22:35:09.487Z,21.31
2022-08-22T22:37:36.431Z,21.32
2022-08-22T22:40:07.335Z,21.21
2022-08-22T22:42:29.089Z,21.27
2022-08-22T22:44:50.558Z,21.11
2022-08-22T22:47:12.020Z,21.00
2022-08-22T22:49:33.668Z,20.89
2022-08-22T22:51:55.340Z,20.80
2022-08-22T22:54:17.576Z,20.78
2022-08-22T22:56:39.034Z,20.77
2022-08-22T22:59:12.581Z,20.73
2022-08-22T23:01:35.876Z,20.71
2022-08-22T23:03:59.565Z,20.68
2022-08-22T23:06:29.646Z,20.73
2022-08-22T23:08:51.819Z,20.64
2022-08-22T23:11:15.770Z,20.51
2022-08-22T23:13:39.796Z,20.44
2022-08-22T23:16:14.688Z,20.40
2022-08-22T23:18:36.414Z,20.43
2022-08-22T23:20:57.870Z,20.37
2022-08-22T23:23:19.317Z,20.39
2022-08-22T23:25:40.776Z,20.26
2022-08-22T23:28:02.691Z,20.10
2022-08-22T23:30:24.395Z,20.02
2022-08-22T23:32:45.843Z,19.84
2022-08-22T23:35:08.177Z,19.79
2022-08-22T23:37:29.681Z,19.75
2022-08-22T23:39:51.253Z,19.80
2022-08-22T23:42:14.594Z,19.84
2022-08-22T23:44:38.524Z,19.75
2022-08-22T23:47:00.441Z,19.73
2022-08-22T23:49:22.060Z,19.61
2022-08-22T23:51:44.557Z,19.59
2022-08-22T23:54:06.646Z,19.67
2022-08-22T23:56:37.601Z,19.57
2022-08-22T23:59:00.877Z,19.45
